Time;durP1;ratioP1;P1;durP2;ratioP2;P2;SDS_P1;SDS_P2;PMS_P1;PMS_P2;Temp;Humidity;BMP_temperature;BMP_pressure;BME280_temperature;BME280_humidity;BME280_pressure;Samples;Min_cycle;Max_cycle;Signal;HPM_P1;HPM_P2
2021/09/01 00:00:22;;;;;;;9.98;5.37;;;;;;;16.48;69.72;99717.30;1816642;79;21240;-76
2021/09/01 00:03:28;;;;;;;6.78;4.72;;;;;;;16.39;70.16;99718.67;1815441;79;21303;-75
2021/09/01 00:06:33;;;;;;;9.90;5.30;;;;;;;16.29;70.59;99724.19;1814821;79;21326;-75
2021/09/01 00:09:40;;;;;;;7.85;5.55;;;;;;;16.23;71.06;99728.37;1802489;79;21316;-76
2021/09/01 00:12:44;;;;;;;7.80;5.80;;;;;;;16.08;71.62;99724.59;1801240;79;21157;-76
2021/09/01 00:15:51;;;;;;;8.58;5.42;;;;;;;15.93;72.25;99724.94;1801126;79;21233;-76
2021/09/01 00:18:58;;;;;;;7.40;5.85;;;;;;;15.84;72.80;99726.28;1802996;79;21293;-76
2021/09/01 00:22:03;;;;;;;11.28;5.25;;;;;;;15.77;73.34;99723.59;1802745;79;21215;-76
2021/09/01 00:25:09;;;;;;;15.98;6.62;;;;;;;15.71;73.73;99720.34;1802270;78;21307;-76
2021/09/01 00:28:14;;;;;;;11.08;6.00;;;;;;;15.67;73.90;99716.91;1802994;79;21284;-76
2021/09/01 00:31:20;;;;;;;8.18;5.65;;;;;;;15.63;74.24;99719.76;1801526;79;21213;-76
2021/09/01 00:34:26;;;;;;;13.55;5.75;;;;;;;15.59;74.49;99717.44;1801279;79;21288;-75
2021/09/01 00:37:31;;;;;;;11.65;5.92;;;;;;;15.57;74.68;99719.59;1801451;79;21225;-75
2021/09/01 00:40:37;;;;;;;8.88;6.03;;;;;;;15.55;74.65;99716.73;1802338;78;21308;-76
2021/09/01 00:43:42;;;;;;;7.62;5.20;;;;;;;15.51;74.62;99719.08;1802043;79;21780;-75
2021/09/01 00:46:48;;;;;;;9.98;5.42;;;;;;;15.50;74.51;99715.17;1802806;79;21748;-76
2021/09/01 00:49:53;;;;;;;6.53;5.35;;;;;;;15.48;74.33;99716.79;1802913;79;21206;-75
2021/09/01 00:53:01;;;;;;;12.28;5.97;;;;;;;15.44;74.24;99711.41;1802435;79;21300;-76
2021/09/01 00:56:06;;;;;;;14.38;7.22;;;;;;;15.42;74.22;99711.30;1801958;79;21362;-76
2021/09/01 00:59:13;;;;;;;9.85;5.97;;;;;;;15.38;74.35;99708.14;1802542;79;21189;-75
2021/09/01 01:02:21;;;;;;;11.30;5.97;;;;;;;15.36;74.54;99711.67;1801452;79;21817;-75
2021/09/01 01:05:27;;;;;;;8.10;5.78;;;;;;;15.31;74.83;99705.98;1801197;79;21269;-75
2021/09/01 01:08:36;;;;;;;8.33;5.55;;;;;;;15.26;75.23;99704.42;1809088;79;21326;-75
2021/09/01 01:11:43;;;;;;;12.03;5.95;;;;;;;15.23;75.40;99708.45;1816323;77;21854;-75
2021/09/01 01:14:58;;;;;;;8.45;5.35;;;;;;;15.23;75.37;99704.86;1815551;79;21815;-75
2021/09/01 01:18:04;;;;;;;8.45;5.35;;;;;;;15.20;75.16;99697.89;1817184;79;21287;-75
2021/09/01 01:21:12;;;;;;;7.70;6.35;;;;;;;15.17;74.81;99693.35;1815665;79;21157;-75
2021/09/01 01:24:17;;;;;;;14.05;5.92;;;;;;;15.13;74.77;99694.86;1816000;79;21315;-75
2021/09/01 01:27:43;;;;;;;15.13;6.35;;;;;;;15.08;74.73;99689.47;1815667;79;21311;-75
2021/09/01 01:30:48;;;;;;;10.40;6.42;;;;;;;15.07;74.32;99693.30;1816915;79;21719;-76
2021/09/01 01:33:55;;;;;;;10.48;5.87;;;;;;;15.03;74.14;99685.16;1802725;79;21169;-77
2021/09/01 01:37:02;;;;;;;11.65;6.35;;;;;;;14.98;74.05;99690.48;1816910;79;21157;-77
2021/09/01 01:40:08;;;;;;;20.48;6.12;;;;;;;14.94;74.09;99684.27;1816914;79;21233;-77
2021/09/01 01:43:14;;;;;;;9.85;6.60;;;;;;;14.88;74.31;99689.28;1816965;79;21290;-76
2021/09/01 01:46:20;;;;;;;7.25;5.78;;;;;;;14.80;74.54;99690.36;1816964;79;21315;-76
2021/09/01 01:49:25;;;;;;;9.18;6.65;;;;;;;14.73;74.71;99684.91;1816944;79;21299;-76
2021/09/01 01:52:31;;;;;;;9.65;6.25;;;;;;;14.69;74.84;99682.27;1816950;79;21303;-76
2021/09/01 01:55:36;;;;;;;11.10;6.92;;;;;;;14.67;75.27;99675.28;1816885;79;21444;-76
2021/09/01 01:58:42;;;;;;;12.23;7.12;;;;;;;14.69;75.85;99680.05;1817104;79;21339;-76
2021/09/01 02:01:48;;;;;;;20.45;7.45;;;;;;;14.66;76.36;99673.59;1816016;79;21204;-76
2021/09/01 02:04:54;;;;;;;12.33;6.70;;;;;;;14.65;76.59;99671.38;1816000;79;21323;-75
2021/09/01 02:08:01;;;;;;;13.60;5.97;;;;;;;14.65;76.58;99674.13;1817917;79;21268;-75
2021/09/01 02:11:06;;;;;;;13.75;6.30;;;;;;;14.60;76.58;99669.81;1802565;79;21871;-75
2021/09/01 02:14:13;;;;;;;11.05;6.15;;;;;;;14.59;76.70;99675.55;1802324;79;21352;-75
2021/09/01 02:17:19;;;;;;;14.53;6.20;;;;;;;14.57;76.66;99681.25;1802630;79;21276;-75
2021/09/01 02:20:25;;;;;;;12.95;7.05;;;;;;;14.54;76.53;99682.55;1802824;79;21280;-75
2021/09/01 02:23:30;;;;;;;12.13;7.22;;;;;;;14.50;76.67;99684.03;1802624;79;21340;-76
2021/09/01 02:26:35;;;;;;;11.85;6.10;;;;;;;14.51;76.29;99684.34;1802441;78;21182;-76
2021/09/01 02:29:42;;;;;;;14.05;7.10;;;;;;;14.48;76.43;99684.77;1802648;79;21170;-76
2021/09/01 02:32:46;;;;;;;9.03;7.22;;;;;;;14.43;76.85;99689.20;1802677;79;21276;-74
2021/09/01 02:35:51;;;;;;;13.20;7.85;;;;;;;14.38;77.00;99687.63;1801478;79;21217;-75
2021/09/01 02:38:57;;;;;;;12.35;7.67;;;;;;;14.37;77.30;99693.67;1802793;79;21169;-75
2021/09/01 02:42:03;;;;;;;10.03;7.53;;;;;;;14.40;77.70;99696.00;1802464;79;21320;-75
2021/09/01 02:45:10;;;;;;;13.80;7.42;;;;;;;14.43;77.71;99694.70;1802144;79;21328;-75
2021/09/01 02:48:15;;;;;;;9.68;7.62;;;;;;;14.46;77.68;99694.28;1802815;79;21590;-75
2021/09/01 02:51:20;;;;;;;9.53;6.90;;;;;;;14.46;77.49;99691.00;1803020;79;21283;-75
2021/09/01 02:54:27;;;;;;;11.12;6.92;;;;;;;14.52;77.74;99692.91;1802795;79;21771;-75
2021/09/01 02:57:33;;;;;;;12.43;7.40;;;;;;;14.59;77.63;99694.81;1802400;78;21938;-75
2021/09/01 03:00:39;;;;;;;11.08;7.55;;;;;;;14.61;77.26;99700.93;1802332;79;21308;-75
2021/09/01 03:03:45;;;;;;;9.08;6.80;;;;;;;14.61;77.19;99700.39;1802724;79;21216;-75
2021/09/01 03:06:50;;;;;;;9.08;7.20;;;;;;;14.65;77.28;99704.94;1802945;79;21328;-75
2021/09/01 03:09:57;;;;;;;11.25;8.50;;;;;;;14.67;77.23;99698.67;1803461;78;21937;-75
2021/09/01 03:13:04;;;;;;;12.82;8.18;;;;;;;14.74;77.73;99696.22;1801044;79;21218;-75
2021/09/01 03:16:11;;;;;;;15.43;7.78;;;;;;;14.85;77.71;99704.31;1801453;79;21173;-75
2021/09/01 03:19:18;;;;;;;10.90;8.25;;;;;;;14.94;77.47;99698.88;1801343;79;21713;-74
2021/09/01 03:22:23;;;;;;;11.18;7.37;;;;;;;15.02;77.23;99700.00;1802693;79;21284;-75
2021/09/01 03:25:29;;;;;;;12.80;8.58;;;;;;;15.08;77.03;99700.49;1802427;79;21194;-75
2021/09/01 03:28:35;;;;;;;13.35;8.40;;;;;;;15.16;76.94;99701.31;1802051;79;21300;-76
2021/09/01 03:31:45;;;;;;;12.18;7.72;;;;;;;15.26;76.96;99702.52;1803197;79;21319;-76
2021/09/01 03:34:50;;;;;;;12.30;8.03;;;;;;;15.39;76.73;99696.08;1802897;79;21328;-77
2021/09/01 03:37:56;;;;;;;21.52;7.53;;;;;;;15.52;76.53;99706.98;1794967;79;21190;-76
2021/09/01 03:41:02;;;;;;;20.08;7.62;;;;;;;15.64;76.33;99708.53;1794244;79;21280;-76
2021/09/01 03:44:08;;;;;;;13.38;7.80;;;;;;;15.78;76.06;99704.59;1792972;79;21272;-76
2021/09/01 03:47:14;;;;;;;13.43;7.15;;;;;;;15.94;75.63;99705.09;1791078;80;21367;-76
2021/09/01 03:50:21;;;;;;;10.53;7.85;;;;;;;16.07;75.12;99708.58;1798273;79;21196;-76
2021/09/01 03:53:26;;;;;;;14.30;7.50;;;;;;;16.19;74.81;99714.20;1737354;81;21328;-75
2021/09/01 03:56:32;;;;;;;15.08;7.25;;;;;;;16.32;74.32;99714.05;1735114;82;21363;-75
2021/09/01 03:59:39;;;;;;;10.72;7.67;;;;;;;16.44;74.19;99712.77;1793975;79;21264;-76
2021/09/01 04:02:45;;;;;;;8.73;7.60;;;;;;;16.57;73.86;99711.25;1799081;79;21134;-77
2021/09/01 04:05:52;;;;;;;16.90;7.35;;;;;;;16.71;73.51;99705.58;1768523;80;21756;-76
2021/09/01 04:08:57;;;;;;;10.85;7.20;;;;;;;16.84;73.35;99713.20;1764373;80;21713;-77
2021/09/01 04:12:02;;;;;;;12.75;6.80;;;;;;;16.99;72.92;99711.41;1809378;79;21194;-76
2021/09/01 04:15:09;;;;;;;18.00;7.42;;;;;;;17.14;72.65;99714.30;1780563;80;21169;-77
2021/09/01 04:18:16;;;;;;;12.68;7.20;;;;;;;17.27;72.54;99716.34;1788081;80;21246;-76
2021/09/01 04:21:21;;;;;;;9.58;6.95;;;;;;;17.40;72.35;99713.89;1786351;80;21192;-75
2021/09/01 04:24:27;;;;;;;10.32;7.35;;;;;;;17.54;72.14;99718.14;1749326;80;21287;-75
2021/09/01 04:27:32;;;;;;;13.13;6.67;;;;;;;17.68;72.13;99710.48;1744485;82;21413;-76
2021/09/01 04:30:38;;;;;;;8.68;6.35;;;;;;;17.81;71.55;99710.31;1736706;81;21342;-75
2021/09/01 04:33:44;;;;;;;11.20;6.62;;;;;;;17.98;71.51;99717.38;1759387;81;21478;-76
2021/09/01 04:36:49;;;;;;;13.48;6.50;;;;;;;18.18;71.26;99717.57;1755822;81;21827;-76
2021/09/01 04:39:55;;;;;;;13.13;7.53;;;;;;;18.33;71.31;99718.76;1755559;81;21228;-76
2021/09/01 04:43:02;;;;;;;12.03;5.60;;;;;;;18.51;71.50;99719.17;1733066;81;21201;-75
2021/09/01 04:46:06;;;;;;;10.15;6.47;;;;;;;18.76;71.25;99717.53;1759399;81;21644;-77
2021/09/01 04:49:14;;;;;;;7.03;5.70;;;;;;;19.04;70.74;99716.73;1778213;80;21164;-76
2021/09/01 04:52:20;;;;;;;13.20;5.00;;;;;;;19.32;70.06;99719.22;1742189;82;21339;-77
2021/09/01 04:55:27;;;;;;;6.87;4.67;;;;;;;19.60;68.87;99708.12;1737197;82;21811;-78
2021/09/01 04:58:32;;;;;;;7.53;4.20;;;;;;;19.87;67.95;99707.49;1750836;81;21774;-76
2021/09/01 05:01:37;;;;;;;6.03;3.87;;;;;;;20.15;65.75;99712.95;1748733;81;21334;-76
2021/09/01 05:04:43;;;;;;;8.28;4.40;;;;;;;20.39;63.91;99709.98;1775071;79;21764;-76
2021/09/01 05:07:48;;;;;;;5.17;3.90;;;;;;;20.58;62.74;99710.01;1772929;79;21399;-77
2021/09/01 05:10:55;;;;;;;5.20;3.65;;;;;;;20.78;62.13;99720.55;1772921;80;21279;-76
2021/09/01 05:14:01;;;;;;;7.20;3.92;;;;;;;20.97;61.29;99714.13;1765829;79;21278;-76
2021/09/01 05:17:07;;;;;;;4.78;3.72;;;;;;;21.13;60.43;99714.62;1789801;78;21890;-76
2021/09/01 05:20:14;;;;;;;6.75;3.40;;;;;;;21.29;59.68;99716.17;1788965;79;21288;-78
2021/09/01 05:23:20;;;;;;;6.45;3.22;;;;;;;21.46;59.57;99722.52;1787567;79;21373;-77
2021/09/01 05:26:25;;;;;;;9.33;3.60;;;;;;;21.62;58.53;99717.94;1788819;79;21288;-78
2021/09/01 05:29:31;;;;;;;4.47;3.22;;;;;;;21.77;58.03;99713.07;1787212;78;21187;-77
2021/09/01 05:32:38;;;;;;;5.20;3.22;;;;;;;21.93;57.61;99705.16;1789374;78;21292;-77
2021/09/01 05:35:45;;;;;;;6.58;2.92;;;;;;;22.08;56.57;99709.45;1786115;78;21877;-78
2021/09/01 05:38:51;;;;;;;5.03;3.10;;;;;;;22.20;56.15;99701.76;1786228;78;21311;-77
2021/09/01 05:41:57;;;;;;;9.73;3.60;;;;;;;22.35;55.44;99694.09;1786149;78;21741;-77
2021/09/01 05:45:03;;;;;;;6.35;3.20;;;;;;;22.51;54.96;99698.36;1788026;78;21323;-77
2021/09/01 05:48:08;;;;;;;5.75;3.20;;;;;;;22.66;54.55;99696.48;1785983;78;21737;-77
2021/09/01 05:51:14;;;;;;;16.50;2.83;;;;;;;22.80;53.56;99694.60;1785330;78;21891;-77
2021/09/01 05:54:21;;;;;;;6.55;3.17;;;;;;;22.93;52.86;99688.56;1787527;78;21898;-77
2021/09/01 05:57:34;;;;;;;6.37;2.92;;;;;;;23.06;52.44;99692.80;1784498;78;21386;-77
2021/09/01 06:00:42;;;;;;;4.45;2.67;;;;;;;23.16;51.43;99688.09;1789783;78;21177;-77
2021/09/01 06:03:49;;;;;;;7.45;2.90;;;;;;;23.27;50.26;99684.76;1785793;78;21205;-76
2021/09/01 06:06:54;;;;;;;4.90;2.40;;;;;;;23.37;50.09;99685.34;1787524;78;22563;-76
2021/09/01 06:10:00;;;;;;;4.47;2.35;;;;;;;23.51;49.97;99687.05;1783662;78;21145;-76
2021/09/01 06:13:12;;;;;;;4.75;2.50;;;;;;;23.62;48.25;99690.98;1788028;78;22828;-76
2021/09/01 06:16:10;;;;;;;6.03;2.87;;;;;;;23.74;47.77;99698.27;1760320;79;21747;-76
2021/09/01 06:19:16;;;;;;;9.28;2.72;;;;;;;23.82;48.04;99692.14;1741044;80;21609;-77
2021/09/01 06:22:22;;;;;;;4.45;2.70;;;;;;;23.92;48.27;99703.31;1735755;80;21185;-77
2021/09/01 06:25:27;;;;;;;3.37;2.72;;;;;;;24.04;48.10;99699.66;1736788;80;21225;-78
2021/09/01 06:28:35;;;;;;;4.15;2.77;;;;;;;24.16;47.69;99707.21;1748608;80;21568;-76
2021/09/01 06:31:41;;;;;;;7.60;2.83;;;;;;;24.29;47.67;99700.78;1758830;79;21262;-85
2021/09/01 06:34:46;;;;;;;5.05;2.90;;;;;;;24.40;46.76;99701.91;1736406;81;21240;-78
2021/09/01 06:37:51;;;;;;;6.60;3.00;;;;;;;24.48;46.43;99696.30;1736108;81;21332;-78
2021/09/01 06:40:57;;;;;;;6.28;2.75;;;;;;;24.58;46.62;99698.24;1739477;81;21304;-79
2021/09/01 06:44:04;;;;;;;11.43;2.60;;;;;;;24.67;46.40;99695.97;1746484;80;21362;-78
2021/09/01 06:47:11;;;;;;;11.10;2.58;;;;;;;24.75;46.24;99701.55;1696900;80;21208;-79
2021/09/01 06:50:20;;;;;;;6.50;2.47;;;;;;;24.85;45.83;99705.70;1700079;80;21214;-80
2021/09/01 06:53:28;;;;;;;5.05;2.40;;;;;;;24.95;45.41;99699.23;1699404;81;22574;-78
2021/09/01 06:56:34;;;;;;;4.05;2.02;;;;;;;25.02;44.90;99692.75;1745957;80;21169;-80
2021/09/01 06:59:41;;;;;;;6.20;2.40;;;;;;;25.05;43.45;99686.59;1743910;80;21209;-78
2021/09/01 07:02:58;;;;;;;3.20;2.40;;;;;;;25.11;43.70;99681.27;1842912;76;22778;-80
2021/09/01 07:06:04;;;;;;;4.60;2.12;;;;;;;25.16;44.01;99691.04;1816109;77;22020;-82
2021/09/01 07:09:09;;;;;;;2.72;1.98;;;;;;;25.28;43.75;99689.88;1818543;77;21325;-80
2021/09/01 07:12:15;;;;;;;8.33;2.17;;;;;;;25.38;42.70;99686.45;1811506;77;21377;-78
2021/09/01 07:15:23;;;;;;;3.27;1.90;;;;;;;25.46;40.80;99685.02;1812299;77;21169;-78
2021/09/01 07:18:29;;;;;;;3.20;1.60;;;;;;;25.54;41.40;99691.95;1816728;77;22915;-77
2021/09/01 07:21:27;;;;;;;6.80;2.10;;;;;;;25.64;41.46;99684.87;1809563;77;21258;-77
2021/09/01 07:24:32;;;;;;;3.08;2.05;;;;;;;25.69;40.63;99687.66;1812431;77;21137;-81
2021/09/01 07:27:38;;;;;;;2.62;1.60;;;;;;;25.74;39.83;99687.62;1811949;77;21229;-77
2021/09/01 07:30:43;;;;;;;3.83;1.80;;;;;;;25.71;37.79;99683.42;1812639;77;21259;-77
2021/09/01 07:33:50;;;;;;;3.00;1.62;;;;;;;25.63;38.03;99683.20;1813445;77;21175;-78
2021/09/01 07:36:58;;;;;;;6.37;1.92;;;;;;;25.60;37.54;99684.64;1812597;77;21191;-79
2021/09/01 07:40:14;;;;;;;2.75;1.70;;;;;;;25.51;37.29;99676.58;1812006;77;21196;-78
2021/09/01 07:43:26;;;;;;;7.22;1.67;;;;;;;25.43;36.74;99678.02;1810421;77;21251;-79
2021/09/01 07:46:30;;;;;;;2.58;1.60;;;;;;;25.39;37.53;99676.09;1814179;77;21311;-78
2021/09/01 07:49:35;;;;;;;5.60;1.65;;;;;;;25.49;36.94;99677.41;1812248;77;21775;-79
2021/09/01 07:52:40;;;;;;;3.60;1.67;;;;;;;25.53;36.82;99669.28;1762011;80;21885;-78
2021/09/01 07:55:45;;;;;;;3.83;1.90;;;;;;;25.62;36.40;99673.97;1760050;80;21180;-82
2021/09/01 07:58:51;;;;;;;18.77;2.35;;;;;;;25.72;35.28;99655.68;1763187;79;21188;-78
2021/09/01 08:01:57;;;;;;;2.95;1.90;;;;;;;25.69;35.84;99674.49;1734057;80;22538;-78
2021/09/01 08:05:02;;;;;;;9.08;2.02;;;;;;;25.72;35.87;99664.08;1726486;81;22517;-78
2021/09/01 08:08:07;;;;;;;2.62;1.75;;;;;;;25.81;35.71;99671.34;1729092;81;21184;-78
2021/09/01 08:11:14;;;;;;;3.20;1.82;;;;;;;25.81;34.37;99660.13;1720101;81;21197;-78
2021/09/01 08:14:19;;;;;;;2.67;1.47;;;;;;;25.79;36.04;99659.59;1750278;81;21574;-77
2021/09/01 08:17:25;;;;;;;11.10;1.80;;;;;;;25.85;35.46;99660.39;1750932;81;21195;-78
2021/09/01 08:20:30;;;;;;;3.92;1.98;;;;;;;25.89;35.80;99658.11;1750748;81;21251;-78
2021/09/01 08:23:35;;;;;;;10.58;2.25;;;;;;;26.00;35.06;99654.08;1747760;81;21177;-78
2021/09/01 08:26:41;;;;;;;6.72;1.65;;;;;;;26.07;34.77;99658.52;1748287;81;21232;-78
2021/09/01 08:29:46;;;;;;;5.15;1.72;;;;;;;26.13;34.71;99662.38;1744266;81;21169;-79
2021/09/01 08:32:52;;;;;;;2.70;1.52;;;;;;;26.23;34.14;99656.66;1747022;81;21925;-78
2021/09/01 08:35:57;;;;;;;3.62;1.90;;;;;;;26.23;33.09;99651.05;1752538;81;21188;-78
2021/09/01 08:39:04;;;;;;;2.62;1.85;;;;;;;26.14;33.14;99661.23;1753565;81;21307;-77
2021/09/01 08:42:11;;;;;;;2.50;1.75;;;;;;;26.15;33.38;99654.49;1746419;81;21359;-78
2021/09/01 08:45:16;;;;;;;2.12;1.87;;;;;;;26.16;33.21;99653.92;1754235;81;21962;-78
2021/09/01 08:48:23;;;;;;;2.45;1.95;;;;;;;26.19;33.12;99655.58;1746486;81;21630;-78
2021/09/01 08:51:28;;;;;;;9.18;2.50;;;;;;;26.14;32.55;99651.42;1719535;82;22293;-78
2021/09/01 08:54:34;;;;;;;4.20;2.37;;;;;;;26.10;32.67;99654.55;1756456;81;21307;-78
2021/09/01 09:00:18;;;;;;;7.08;2.30;;;;;;;26.26;33.73;99653.84;1829853;76;28276;-76
2021/09/01 09:03:22;;;;;;;12.82;2.33;;;;;;;26.39;33.80;99642.48;1802467;77;21322;-77
2021/09/01 09:06:29;;;;;;;4.62;2.90;;;;;;;26.54;33.38;99646.56;1803254;77;21294;-75
2021/09/01 09:09:40;;;;;;;2.83;2.12;;;;;;;26.59;31.38;99635.28;1799131;77;21381;-77
2021/09/01 09:12:45;;;;;;;5.97;3.17;;;;;;;26.45;30.71;99635.16;1807094;77;21192;-77
2021/09/01 09:15:53;;;;;;;5.65;2.55;;;;;;;26.29;31.35;99629.97;1806641;77;21133;-76
2021/09/01 09:18:59;;;;;;;5.80;2.77;;;;;;;26.19;31.77;99628.95;1762216;77;21274;-86
2021/09/01 09:22:09;;;;;;;4.67;2.45;;;;;;;26.15;32.02;99629.27;1817647;77;21279;-86
2021/09/01 09:25:34;;;;;;;3.83;3.12;;;;;;;26.12;31.28;99624.27;1806038;77;21548;-90
2021/09/01 09:28:40;;;;;;;6.05;3.45;;;;;;;26.13;31.55;99620.34;1805419;77;21376;-82
2021/09/01 09:31:52;;;;;;;6.40;4.12;;;;;;;26.15;31.92;99627.03;1814586;77;21270;-89
2021/09/01 09:35:00;;;;;;;8.23;5.30;;;;;;;26.13;31.45;99627.91;1813963;77;21279;-83
2021/09/01 09:38:13;;;;;;;7.80;4.47;;;;;;;25.94;31.78;99629.21;1776660;77;21261;-81
2021/09/01 09:41:29;;;;;;;7.33;4.78;;;;;;;25.79;32.45;99632.98;1801466;77;21322;-81
2021/09/01 09:44:35;;;;;;;9.68;5.53;;;;;;;25.81;32.49;99629.89;1799435;77;21266;-81
2021/09/01 09:48:03;;;;;;;8.33;4.83;;;;;;;25.91;33.13;99622.22;1798439;77;21215;-80
2021/09/01 09:51:09;;;;;;;8.50;4.25;;;;;;;26.06;31.86;99623.20;1744783;82;21383;-81
2021/09/01 09:54:32;;;;;;;7.62;4.85;;;;;;;26.16;32.18;99632.91;1753991;81;21277;-82
2021/09/01 09:57:37;;;;;;;6.97;4.47;;;;;;;26.32;32.51;99632.20;1731389;79;21800;-82
2021/09/01 10:00:44;;;;;;;7.70;3.87;;;;;;;26.44;31.47;99627.89;1732686;81;21169;-81
2021/09/01 10:03:50;;;;;;;7.97;3.25;;;;;;;26.55;31.71;99636.18;1715153;81;21700;-81
2021/09/01 10:06:54;;;;;;;5.20;3.05;;;;;;;26.58;30.92;99632.19;1717073;81;21287;-82
2021/09/01 10:10:00;;;;;;;15.53;2.62;;;;;;;26.59;30.35;99626.04;1679620;83;21266;-83
2021/09/01 10:13:06;;;;;;;4.58;2.40;;;;;;;26.56;31.12;99622.42;1733805;80;21295;-84
2021/09/01 10:16:30;;;;;;;3.87;2.60;;;;;;;26.62;31.55;99624.85;1729832;81;21586;-83
2021/09/01 10:19:38;;;;;;;3.67;2.45;;;;;;;26.66;30.09;99618.91;1725699;81;21374;-81
2021/09/01 10:22:43;;;;;;;2.80;1.80;;;;;;;26.66;30.36;99620.32;1720920;80;21241;-82
2021/09/01 10:25:53;;;;;;;5.72;1.80;;;;;;;26.53;29.38;99614.02;1727560;81;21174;-82
2021/09/01 10:29:01;;;;;;;5.28;2.27;;;;;;;26.35;30.29;99608.62;1729053;81;21291;-83
2021/09/01 10:32:17;;;;;;;6.15;2.27;;;;;;;26.29;31.24;99610.35;1703081;82;21291;-81
2021/09/01 10:35:26;;;;;;;2.08;1.45;;;;;;;26.37;30.37;99615.31;1671659;83;21173;-84
2021/09/01 10:38:39;;;;;;;3.20;2.37;;;;;;;26.39;29.42;99603.23;1716525;82;21275;-81
2021/09/01 10:41:46;;;;;;;3.22;2.00;;;;;;;26.25;30.10;99602.56;1746180;81;21240;-82
2021/09/01 10:44:55;;;;;;;4.50;1.70;;;;;;;26.22;30.37;99603.72;1715217;81;21897;-83
2021/09/01 10:48:12;;;;;;;4.67;1.82;;;;;;;26.31;30.84;99602.50;1739229;82;21343;-82
2021/09/01 10:51:32;;;;;;;5.28;1.30;;;;;;;26.47;31.31;99593.62;1709292;83;21773;-83
2021/09/01 10:54:43;;;;;;;3.50;1.80;;;;;;;26.70;30.55;99592.52;1736226;81;21312;-82
2021/09/01 10:57:49;;;;;;;2.67;1.90;;;;;;;26.85;30.17;99593.70;1743795;82;21301;-82
2021/09/01 11:01:03;;;;;;;4.37;2.02;;;;;;;26.95;29.57;99590.75;1749212;81;21308;-82
2021/09/01 11:04:10;;;;;;;4.90;2.20;;;;;;;26.99;29.46;99575.55;1736280;82;21843;-82
2021/09/01 11:07:15;;;;;;;4.45;2.50;;;;;;;27.06;29.12;99581.64;1746455;81;21882;-83
2021/09/01 11:10:21;;;;;;;4.30;2.00;;;;;;;27.13;29.56;99572.86;1729929;82;21165;-75
2021/09/01 11:13:26;;;;;;;4.12;2.10;;;;;;;27.20;29.31;99567.72;1735716;82;21314;-75
2021/09/01 11:16:34;;;;;;;6.08;2.15;;;;;;;27.29;29.16;99558.01;1717347;82;21882;-83
2021/09/01 11:19:40;;;;;;;2.92;1.92;;;;;;;27.28;29.68;99562.80;1735762;82;21181;-76
2021/09/01 11:22:45;;;;;;;6.95;1.80;;;;;;;27.33;29.24;99555.69;1702204;83;21836;-75
2021/09/01 11:25:51;;;;;;;3.50;1.75;;;;;;;27.31;28.66;99554.34;1744026;82;21744;-75
2021/09/01 11:28:58;;;;;;;3.33;2.20;;;;;;;27.24;28.83;99559.78;1712978;83;21264;-82
2021/09/01 11:32:04;;;;;;;6.33;2.25;;;;;;;27.24;28.87;99550.50;1749877;82;21300;-82
2021/09/01 11:35:12;;;;;;;2.58;1.85;;;;;;;27.25;28.27;99550.22;1721715;82;21981;-82
2021/09/01 11:38:17;;;;;;;5.42;2.37;;;;;;;27.20;28.40;99550.30;1726255;82;21844;-84
2021/09/01 11:41:24;;;;;;;2.95;1.60;;;;;;;27.14;28.63;99547.86;1741008;81;21306;-84
2021/09/01 11:44:29;;;;;;;3.58;1.90;;;;;;;27.13;28.55;99541.41;1684963;83;21283;-84
2021/09/01 11:47:34;;;;;;;2.05;1.45;;;;;;;27.18;28.59;99535.72;1720400;82;21335;-85
2021/09/01 11:50:43;;;;;;;3.77;1.80;;;;;;;27.28;28.91;99533.89;1753455;81;21339;-85
2021/09/01 11:53:50;;;;;;;2.85;1.70;;;;;;;27.35;28.73;99535.75;1714499;81;21166;-83
2021/09/01 11:56:57;;;;;;;10.75;1.98;;;;;;;27.41;28.87;99527.50;1736475;82;21176;-85
2021/09/01 12:00:07;;;;;;;2.92;1.80;;;;;;;27.45;28.89;99522.94;1730080;82;21284;-85
2021/09/01 12:03:13;;;;;;;4.92;1.90;;;;;;;27.47;28.20;99510.81;1731524;81;21233;-84
2021/09/01 12:06:18;;;;;;;5.60;2.40;;;;;;;27.47;28.07;99500.98;1728074;81;21315;-84
2021/09/01 12:09:25;;;;;;;2.80;1.52;;;;;;;27.49;28.28;99494.51;1707875;84;21311;-85
2021/09/01 12:12:33;;;;;;;5.47;1.98;;;;;;;27.53;28.20;99494.16;1707494;84;21836;-84
2021/09/01 12:15:40;;;;;;;2.20;1.63;;;;;;;27.53;28.61;99484.33;1734444;82;21826;-84
2021/09/01 12:19:07;;;;;;;2.52;1.50;;;;;;;27.54;29.19;99486.56;1737910;82;21244;-85
2021/09/01 12:22:10;;;;;;;7.53;1.75;;;;;;;27.47;29.38;99486.38;1738000;82;21299;-77
2021/09/01 12:25:18;;;;;;;5.50;1.80;;;;;;;27.33;29.56;99495.90;1737967;82;21193;-76
2021/09/01 12:28:24;;;;;;;4.92;2.00;;;;;;;27.20;29.75;99493.33;1739484;82;21173;-76
2021/09/01 12:31:31;;;;;;;5.15;1.85;;;;;;;27.12;29.77;99494.84;1739220;82;21371;-76
2021/09/01 12:34:43;;;;;;;6.47;1.50;;;;;;;27.06;29.70;99487.62;1739625;82;21315;-76
2021/09/01 12:37:48;;;;;;;3.85;1.98;;;;;;;27.06;29.68;99488.20;1739637;82;21771;-76
2021/09/01 12:40:52;;;;;;;2.47;1.60;;;;;;;27.07;30.30;99491.27;1739592;82;21699;-76
2021/09/01 12:44:16;;;;;;;2.72;1.67;;;;;;;27.08;30.44;99490.12;1735503;82;22398;-77
2021/09/01 12:47:17;;;;;;;2.40;1.42;;;;;;;27.05;30.43;99480.32;1710247;84;21684;-77
2021/09/01 12:50:22;;;;;;;3.47;1.70;;;;;;;27.06;29.85;99473.59;1710247;84;21321;-76
2021/09/01 12:53:27;;;;;;;4.55;1.67;;;;;;;27.08;29.72;99474.14;1709976;84;21871;-76
2021/09/01 12:56:32;;;;;;;2.27;1.62;;;;;;;27.15;29.73;99463.95;1710020;84;21309;-85
2021/09/01 12:59:38;;;;;;;8.25;1.85;;;;;;;27.18;29.83;99461.91;1723164;82;21287;-84
2021/09/01 13:02:44;;;;;;;4.28;1.77;;;;;;;27.16;30.08;99463.62;1746796;80;21231;-84
2021/09/01 13:05:49;;;;;;;3.77;1.92;;;;;;;27.15;30.17;99459.16;1758842;80;21838;-85
2021/09/01 13:08:56;;;;;;;6.15;1.55;;;;;;;27.12;29.75;99458.94;1753379;81;21771;-77
2021/09/01 13:12:03;;;;;;;7.15;2.17;;;;;;;27.07;30.14;99457.02;1753190;81;21312;-76
2021/09/01 13:15:09;;;;;;;6.28;2.20;;;;;;;27.08;30.40;99457.30;1765367;81;22232;-76
2021/09/01 13:18:14;;;;;;;6.53;2.40;;;;;;;27.05;30.54;99453.66;1771630;81;21371;-77
2021/09/01 13:21:19;;;;;;;3.02;1.55;;;;;;;27.02;30.25;99452.89;1771700;81;21310;-85
2021/09/01 13:24:23;;;;;;;6.62;1.95;;;;;;;27.00;30.28;99448.14;1771886;81;21731;-86
2021/09/01 13:27:29;;;;;;;7.40;1.80;;;;;;;27.01;30.53;99445.62;1771788;81;21363;-85
2021/09/01 13:30:37;;;;;;;5.90;2.05;;;;;;;27.00;30.96;99442.52;1772093;81;21272;-85
2021/09/01 13:33:44;;;;;;;4.78;2.05;;;;;;;27.03;30.71;99444.73;1771047;81;21318;-85
2021/09/01 13:36:51;;;;;;;7.37;2.80;;;;;;;27.02;30.64;99437.45;1771309;81;21228;-76
2021/09/01 13:39:57;;;;;;;11.28;2.25;;;;;;;26.95;30.42;99429.41;1773006;81;21354;-77
2021/09/01 13:43:03;;;;;;;3.20;1.90;;;;;;;26.84;31.05;99425.12;1771528;81;21537;-77
2021/09/01 13:46:09;;;;;;;10.63;2.70;;;;;;;26.86;31.05;99422.00;1772144;81;21373;-77
2021/09/01 13:49:15;;;;;;;9.60;2.40;;;;;;;26.92;31.21;99422.20;1771682;81;21205;-77
2021/09/01 13:52:20;;;;;;;5.90;2.83;;;;;;;26.96;30.76;99412.00;1771372;81;21227;-77
2021/09/01 13:55:26;;;;;;;6.12;2.65;;;;;;;26.99;30.77;99407.19;1772947;81;21766;-85
2021/09/01 13:58:32;;;;;;;7.62;2.12;;;;;;;27.07;30.76;99399.48;1773123;81;21299;-84
2021/09/01 14:01:38;;;;;;;3.75;1.90;;;;;;;27.16;30.39;99389.25;1772650;81;21865;-77
2021/09/01 14:04:44;;;;;;;11.00;2.30;;;;;;;27.25;30.28;99382.36;1765023;81;21817;-77
2021/09/01 14:07:50;;;;;;;10.88;2.20;;;;;;;27.24;30.04;99387.69;1763155;81;21320;-85
2021/09/01 14:10:57;;;;;;;7.00;2.30;;;;;;;27.16;29.82;99389.25;1763130;81;21185;-85
2021/09/01 14:14:02;;;;;;;5.12;2.10;;;;;;;27.04;29.79;99372.59;1762845;81;21312;-84
2021/09/01 14:17:07;;;;;;;5.33;2.25;;;;;;;26.89;29.43;99370.90;1762885;81;21181;-85
2021/09/01 14:20:13;;;;;;;8.35;3.20;;;;;;;26.69;30.14;99368.70;1764359;81;21181;-76
2021/09/01 14:23:19;;;;;;;12.35;3.70;;;;;;;26.52;30.54;99372.62;1764377;81;21173;-76
2021/09/01 14:26:25;;;;;;;8.13;2.85;;;;;;;26.38;30.91;99373.09;1765168;81;21878;-76
2021/09/01 14:29:30;;;;;;;12.85;3.33;;;;;;;26.29;31.25;99370.70;1765431;81;21161;-76
2021/09/01 14:32:36;;;;;;;10.60;2.90;;;;;;;26.22;31.49;99367.72;1765679;81;21344;-76
2021/09/01 14:35:35;;;;;;;6.72;2.37;;;;;;;26.16;31.95;99370.88;1765551;81;21256;-76
2021/09/01 14:38:46;;;;;;;5.75;2.50;;;;;;;26.07;33.00;99378.31;1765081;81;21268;-76